createdAt,value
2022-11-12T00:00:56.444Z,8.56
2022-11-12T00:01:56.480Z,8.58
2022-11-12T00:02:56.425Z,8.56
2022-11-12T00:03:56.433Z,8.55
2022-11-12T00:04:56.428Z,8.59
2022-11-12T00:05:56.530Z,8.55
2022-11-12T00:06:56.517Z,8.59
2022-11-12T00:07:56.416Z,8.58
2022-11-12T00:08:56.415Z,8.59
2022-11-12T00:09:56.409Z,8.56
2022-11-12T00:10:56.409Z,8.62
2022-11-12T00:11:56.402Z,8.66
2022-11-12T00:12:56.404Z,8.61
2022-11-12T00:13:56.401Z,8.61
2022-11-12T00:14:56.398Z,8.61
2022-11-12T00:15:56.515Z,8.58
2022-11-12T00:16:56.398Z,8.44
2022-11-12T00:17:56.395Z,8.61
2022-11-12T00:18:56.388Z,8.50
2022-11-12T00:19:56.433Z,8.45
2022-11-12T00:20:56.383Z,8.45
2022-11-12T00:21:56.380Z,8.40
2022-11-12T00:22:56.376Z,8.40
2022-11-12T00:23:56.373Z,8.47
2022-11-12T00:24:56.374Z,8.45
2022-11-12T00:25:56.376Z,8.44
2022-11-12T00:26:56.368Z,8.43
2022-11-12T00:27:56.370Z,8.38
2022-11-12T00:28:56.362Z,8.37
2022-11-12T00:29:56.385Z,8.43
2022-11-12T00:30:56.355Z,8.37
2022-11-12T00:31:56.469Z,8.36
2022-11-12T00:32:56.354Z,8.41
2022-11-12T00:33:56.350Z,8.38
2022-11-12T00:34:56.352Z,8.38
2022-11-12T00:35:56.342Z,8.34
2022-11-12T00:36:56.341Z,8.38
2022-11-12T00:37:56.335Z,8.29
2022-11-12T00:38:56.327Z,8.40
2022-11-12T00:39:56.335Z,8.34
2022-11-12T00:40:56.331Z,8.40
2022-11-12T00:41:56.334Z,8.26
2022-11-12T00:42:56.404Z,8.29
2022-11-12T00:43:56.329Z,8.30
2022-11-12T00:44:56.319Z,8.33
2022-11-12T00:45:56.313Z,8.36
2022-11-12T00:46:56.308Z,8.30
2022-11-12T00:47:56.431Z,8.30
2022-11-12T00:48:56.324Z,8.38
2022-11-12T00:49:56.315Z,8.29
2022-11-12T00:50:56.300Z,8.38
2022-11-12T00:51:56.299Z,8.28
2022-11-12T00:52:56.290Z,8.36
2022-11-12T00:53:56.290Z,8.37
2022-11-12T00:54:56.288Z,8.33
2022-11-12T00:55:56.290Z,8.34
2022-11-12T00:56:56.282Z,8.37
2022-11-12T00:57:56.279Z,8.38
2022-11-12T00:58:56.281Z,8.40
2022-11-12T00:59:56.284Z,8.29
2022-11-12T01:00:56.314Z,8.33
2022-11-12T01:01:56.267Z,8.29
2022-11-12T01:02:56.270Z,8.23
2022-11-12T01:03:56.418Z,8.30
2022-11-12T01:04:56.409Z,8.28
2022-11-12T01:05:56.253Z,8.23
2022-11-12T01:06:56.310Z,8.12
2022-11-12T01:07:56.468Z,8.16
2022-11-12T01:08:56.255Z,8.22
2022-11-12T01:09:56.246Z,8.23
2022-11-12T01:10:56.245Z,8.10
2022-11-12T01:11:56.239Z,8.19
2022-11-12T01:12:56.236Z,8.11
2022-11-12T01:13:56.235Z,8.12
2022-11-12T01:14:56.238Z,8.10
2022-11-12T01:15:56.231Z,8.15
2022-11-12T01:16:56.223Z,8.05
2022-11-12T01:17:56.225Z,8.08
2022-11-12T01:18:56.218Z,8.01
2022-11-12T01:19:56.338Z,8.08
2022-11-12T01:20:56.215Z,8.10
2022-11-12T01:21:56.203Z,8.02
2022-11-12T01:22:56.207Z,8.00
2022-11-12T01:23:56.205Z,8.00
2022-11-12T01:24:56.199Z,7.98
2022-11-12T01:25:56.208Z,8.02
2022-11-12T01:26:56.197Z,7.93
2022-11-12T01:27:56.190Z,7.97
2022-11-12T01:28:56.185Z,8.05
2022-11-12T01:29:56.187Z,8.02
2022-11-12T01:30:56.185Z,8.02
2022-11-12T01:31:56.175Z,8.05
2022-11-12T01:32:56.178Z,8.01
2022-11-12T01:33:56.173Z,8.04
2022-11-12T01:34:56.171Z,8.10
2022-11-12T01:35:56.283Z,8.11
2022-11-12T01:36:56.163Z,8.19
2022-11-12T01:37:56.162Z,8.19
2022-11-12T01:38:56.163Z,8.16
2022-11-12T01:39:56.156Z,8.11
2022-11-12T01:40:56.148Z,8.12
2022-11-12T01:41:56.149Z,8.05
2022-11-12T01:42:56.146Z,8.12
2022-11-12T01:43:56.144Z,8.12
2022-11-12T01:44:56.140Z,8.10
2022-11-12T01:45:56.139Z,8.11
2022-11-12T01:46:56.134Z,8.10
2022-11-12T01:47:56.133Z,8.12
2022-11-12T01:48:56.130Z,8.15
2022-11-12T01:49:57.255Z,8.15
2022-11-12T01:50:56.129Z,8.11
2022-11-12T01:51:56.243Z,8.18
2022-11-12T01:52:56.124Z,8.04
2022-11-12T01:53:56.110Z,8.01
2022-11-12T01:54:56.107Z,8.07
2022-11-12T01:55:56.101Z,8.01
2022-11-12T01:56:56.104Z,8.15
2022-11-12T01:57:56.094Z,8.10
2022-11-12T01:58:56.101Z,8.20
2022-11-12T01:59:56.093Z,8.15
2022-11-12T02:00:56.115Z,8.22
2022-11-12T02:01:56.085Z,8.22
2022-11-12T02:02:56.092Z,8.22
2022-11-12T02:03:56.081Z,8.10
2022-11-12T02:04:56.080Z,8.10
2022-11-12T02:05:56.076Z,8.08
2022-11-12T02:06:56.130Z,8.10
2022-11-12T02:07:56.181Z,8.11
2022-11-12T02:08:56.064Z,8.08
2022-11-12T02:09:56.061Z,7.95
2022-11-12T02:10:56.057Z,7.95
2022-11-12T02:11:56.056Z,7.90
2022-11-12T02:12:56.052Z,8.07
2022-11-12T02:13:56.052Z,8.01
2022-11-12T02:14:56.063Z,8.01
2022-11-12T02:15:56.047Z,8.00
2022-11-12T02:16:56.054Z,8.02
2022-11-12T02:17:56.040Z,8.00
2022-11-12T02:18:56.036Z,7.98
2022-11-12T02:19:56.045Z,7.97
2022-11-12T02:20:56.030Z,7.98
2022-11-12T02:21:56.025Z,7.93
2022-11-12T02:22:56.230Z,7.93
2022-11-12T02:23:56.129Z,7.95
2022-11-12T02:24:56.063Z,7.87
2022-11-12T02:25:56.119Z,7.86
2022-11-12T02:26:56.011Z,7.82
2022-11-12T02:27:56.064Z,7.80
2022-11-12T02:28:56.334Z,7.89
2022-11-12T02:29:56.001Z,7.75
2022-11-12T02:30:56.011Z,7.77
2022-11-12T02:31:55.986Z,7.83
2022-11-12T02:32:55.991Z,7.72
2022-11-12T02:33:55.986Z,7.79
2022-11-12T02:34:55.984Z,7.83
2022-11-12T02:35:55.984Z,7.87
2022-11-12T02:36:55.977Z,7.85
2022-11-12T02:37:55.981Z,7.90
2022-11-12T02:38:55.971Z,7.86
2022-11-12T02:39:56.090Z,7.89
2022-11-12T02:40:55.966Z,7.89
2022-11-12T02:41:55.968Z,7.86
2022-11-12T02:42:55.961Z,7.89
2022-11-12T02:43:55.955Z,7.85
2022-11-12T02:44:55.953Z,7.87
2022-11-12T02:45:55.952Z,7.86
2022-11-12T02:46:55.947Z,7.85
2022-11-12T02:47:55.945Z,7.82
2022-11-12T02:48:55.935Z,7.75
2022-11-12T02:49:55.937Z,7.80
2022-11-12T02:50:55.933Z,7.72
2022-11-12T02:51:55.932Z,7.75
2022-11-12T02:52:55.921Z,7.75
2022-11-12T02:53:55.927Z,7.71
2022-11-12T02:54:55.921Z,7.72
2022-11-12T02:55:56.041Z,7.63
2022-11-12T02:56:55.913Z,7.68
2022-11-12T02:57:55.913Z,7.53
2022-11-12T02:58:55.902Z,7.60
2022-11-12T02:59:55.903Z,7.57
2022-11-12T03:00:55.965Z,7.61
2022-11-12T03:01:55.900Z,7.49
2022-11-12T03:02:55.892Z,7.45
2022-11-12T03:03:55.888Z,7.53
2022-11-12T03:04:55.895Z,7.52
2022-11-12T03:05:55.880Z,7.52
2022-11-12T03:06:55.984Z,7.53
2022-11-12T03:07:55.882Z,7.61
2022-11-12T03:08:55.874Z,7.49
2022-11-12T03:09:55.875Z,7.55
2022-11-12T03:10:55.871Z,7.48
2022-11-12T03:11:55.982Z,7.46
2022-11-12T03:12:55.861Z,7.58
2022-11-12T03:13:55.865Z,7.61
2022-11-12T03:14:55.858Z,7.57
2022-11-12T03:15:55.848Z,7.71
2022-11-12T03:16:55.851Z,7.74
2022-11-12T03:17:55.853Z,7.72
2022-11-12T03:18:55.840Z,7.58
2022-11-12T03:19:55.845Z,7.55
2022-11-12T03:20:55.839Z,7.63
2022-11-12T03:21:55.839Z,7.63
2022-11-12T03:22:55.831Z,7.57
2022-11-12T03:23:55.832Z,7.57
2022-11-12T03:24:55.827Z,7.71
2022-11-12T03:25:55.829Z,7.60
2022-11-12T03:26:55.815Z,7.55
2022-11-12T03:27:55.926Z,7.57
2022-11-12T03:28:55.812Z,7.57
2022-11-12T03:29:55.813Z,7.57
2022-11-12T03:30:55.803Z,7.67
2022-11-12T03:31:55.800Z,7.58
2022-11-12T03:32:55.812Z,7.55
2022-11-12T03:33:55.805Z,7.50
2022-11-12T03:34:55.904Z,7.49
2022-11-12T03:35:55.789Z,7.52
2022-11-12T03:36:55.788Z,7.52
2022-11-12T03:37:55.785Z,7.52
2022-11-12T03:38:55.783Z,7.49
2022-11-12T03:39:55.783Z,7.42
2022-11-12T03:40:55.777Z,7.48
2022-11-12T03:41:55.773Z,7.42
2022-11-12T03:42:55.766Z,7.43
2022-11-12T03:43:55.875Z,7.45
2022-11-12T03:44:55.763Z,7.42
2022-11-12T03:45:55.760Z,7.39
2022-11-12T03:46:55.753Z,7.45
2022-11-12T03:47:55.752Z,7.43
2022-11-12T03:48:55.746Z,7.35
2022-11-12T03:49:55.791Z,7.49
2022-11-12T03:50:55.741Z,7.50
2022-11-12T03:51:55.739Z,7.61
2022-11-12T03:52:55.737Z,7.58
2022-11-12T03:53:55.733Z,7.61
2022-11-12T03:54:55.724Z,7.63
2022-11-12T03:55:55.729Z,7.50
2022-11-12T03:56:55.716Z,7.48
2022-11-12T03:57:55.716Z,7.40
2022-11-12T03:58:55.709Z,7.40
2022-11-12T03:59:55.823Z,7.39
2022-11-12T04:00:55.785Z,7.40
2022-11-12T04:01:55.706Z,7.40
2022-11-12T04:02:55.700Z,7.46
2022-11-12T04:03:55.699Z,7.34
2022-11-12T04:04:55.686Z,7.30
2022-11-12T04:05:55.692Z,7.24
2022-11-12T04:06:55.712Z,7.16
2022-11-12T04:07:55.685Z,7.20
2022-11-12T04:08:55.679Z,7.15
2022-11-12T04:09:55.679Z,7.07
2022-11-12T04:10:55.678Z,7.24
2022-11-12T04:11:55.676Z,7.17
2022-11-12T04:12:55.672Z,7.30
2022-11-12T04:13:43.740Z,7.15
2022-11-12T04:14:43.728Z,7.23
2022-11-12T04:15:43.854Z,7.24
2022-11-12T04:16:43.718Z,7.21
2022-11-12T04:17:43.727Z,7.20
2022-11-12T04:18:43.716Z,7.23
2022-11-12T04:19:43.711Z,7.24
2022-11-12T04:20:43.710Z,7.23
2022-11-12T04:21:43.702Z,7.24
2022-11-12T04:22:43.703Z,7.32
2022-11-12T04:23:43.702Z,7.28
2022-11-12T04:24:43.704Z,7.28
2022-11-12T04:25:43.694Z,7.25
2022-11-12T04:26:43.688Z,7.25
2022-11-12T04:27:43.688Z,7.23
2022-11-12T04:28:43.685Z,7.21
2022-11-12T04:29:43.683Z,7.17
2022-11-12T04:30:43.675Z,7.17
2022-11-12T04:31:43.787Z,7.10
2022-11-12T04:32:43.672Z,7.12
2022-11-12T04:33:43.665Z,7.13
2022-11-12T04:34:43.713Z,7.03
2022-11-12T04:35:43.667Z,7.13
2022-11-12T04:36:43.657Z,7.03
2022-11-12T04:37:43.654Z,6.99
2022-11-12T04:38:43.648Z,7.10
2022-11-12T04:39:43.651Z,7.20
2022-11-12T04:40:43.636Z,7.07
2022-11-12T04:41:43.637Z,7.13
2022-11-12T04:42:43.636Z,6.98
2022-11-12T04:43:43.632Z,7.09
2022-11-12T04:44:43.627Z,6.92
2022-11-12T04:45:43.622Z,6.85
2022-11-12T04:46:43.620Z,6.89
2022-11-12T04:47:43.738Z,6.88
2022-11-12T04:48:43.615Z,6.87
2022-11-12T04:49:43.612Z,6.89
2022-11-12T04:50:43.604Z,6.94
2022-11-12T04:51:43.601Z,6.94
2022-11-12T04:52:43.605Z,6.88
2022-11-12T04:53:43.597Z,6.80
2022-11-12T04:54:43.602Z,6.84
2022-11-12T04:55:43.589Z,6.85
2022-11-12T04:56:43.584Z,6.87
2022-11-12T04:57:43.582Z,6.77
2022-11-12T04:58:43.578Z,6.79
2022-11-12T04:59:43.579Z,6.77
2022-11-12T05:00:43.572Z,6.80
2022-11-12T05:01:43.761Z,6.85
2022-11-12T05:02:43.567Z,6.85
2022-11-12T05:03:43.680Z,6.81
2022-11-12T05:04:43.559Z,6.80
2022-11-12T05:05:43.555Z,6.89
2022-11-12T05:06:43.621Z,6.84
2022-11-12T05:07:43.550Z,6.85
2022-11-12T05:08:43.540Z,6.79
2022-11-12T05:09:43.544Z,6.80
2022-11-12T05:10:43.536Z,6.71
2022-11-12T05:11:43.538Z,6.69
2022-11-12T05:12:43.532Z,6.76
2022-11-12T05:13:43.529Z,6.77
2022-11-12T05:14:43.522Z,6.77
2022-11-12T05:15:43.520Z,6.84
2022-11-12T05:16:43.517Z,6.80
2022-11-12T05:17:43.518Z,6.88
2022-11-12T05:18:43.512Z,6.80
2022-11-12T05:19:43.621Z,6.79
2022-11-12T05:20:43.501Z,6.84
2022-11-12T05:21:43.875Z,6.87
2022-11-12T05:22:54.258Z,6.88
2022-11-12T05:23:43.495Z,6.87
2022-11-12T05:24:43.488Z,6.87
2022-11-12T05:25:43.483Z,6.77
2022-11-12T05:26:43.479Z,6.84
2022-11-12T05:27:43.477Z,6.81
2022-11-12T05:28:43.473Z,6.76
2022-11-12T05:29:43.473Z,6.71
2022-11-12T05:30:43.469Z,6.66
2022-11-12T05:31:43.468Z,6.66
2022-11-12T05:32:43.456Z,6.69
2022-11-12T05:33:43.456Z,6.64
2022-11-12T05:34:43.480Z,6.67
2022-11-12T05:35:43.562Z,6.69
2022-11-12T05:36:43.445Z,6.59
2022-11-12T05:37:43.442Z,6.64
2022-11-12T05:38:43.437Z,6.69
2022-11-12T05:39:43.436Z,6.62
2022-11-12T05:40:43.432Z,6.61
2022-11-12T05:42:10.867Z,6.56
2022-11-12T05:42:43.426Z,6.66
2022-11-12T05:43:43.419Z,6.56
2022-11-12T05:44:43.418Z,6.62
2022-11-12T05:45:43.410Z,6.59
2022-11-12T05:46:43.414Z,6.55
2022-11-12T05:47:43.407Z,6.54
2022-11-12T05:48:43.407Z,6.58
2022-11-12T05:49:43.394Z,6.56
2022-11-12T05:51:06.180Z,6.67
2022-11-12T05:51:43.513Z,6.59
2022-11-12T05:52:43.385Z,6.69
2022-11-12T05:53:43.383Z,6.67
2022-11-12T05:54:43.377Z,6.69
2022-11-12T05:55:43.378Z,6.66
2022-11-12T05:56:43.372Z,6.61
2022-11-12T05:57:43.366Z,6.61
2022-11-12T05:58:43.365Z,6.62
2022-11-12T05:59:43.361Z,6.58
2022-11-12T06:00:43.356Z,6.61
2022-11-12T06:01:43.353Z,6.56
2022-11-12T06:02:43.412Z,6.49
2022-11-12T06:03:43.353Z,6.55
2022-11-12T06:04:43.341Z,6.49
2022-11-12T06:05:43.343Z,6.40
2022-11-12T06:06:43.380Z,6.37
2022-11-12T06:07:43.453Z,6.40
2022-11-12T06:08:43.335Z,6.40
2022-11-12T06:09:43.323Z,6.31
2022-11-12T06:10:43.327Z,6.40
2022-11-12T06:11:43.322Z,6.43
2022-11-12T06:12:43.312Z,6.38
2022-11-12T06:13:43.312Z,6.28
2022-11-12T06:14:43.304Z,6.25
2022-11-12T06:15:43.304Z,6.17
2022-11-12T06:16:43.300Z,6.21
2022-11-12T06:17:43.291Z,6.17
2022-11-12T06:18:43.293Z,6.21
2022-11-12T06:19:43.288Z,6.25
2022-11-12T06:20:43.283Z,6.34
2022-11-12T06:21:43.283Z,6.31
2022-11-12T06:22:43.277Z,6.36
2022-11-12T06:23:43.383Z,6.36
2022-11-12T06:24:43.267Z,6.38
2022-11-12T06:25:43.269Z,6.41
2022-11-12T06:26:43.267Z,6.33
2022-11-12T06:27:43.258Z,6.38
2022-11-12T06:28:43.295Z,6.38
2022-11-12T06:29:43.250Z,6.30
2022-11-12T06:30:43.246Z,6.27
2022-11-12T06:31:43.247Z,6.25
2022-11-12T06:32:43.242Z,6.21
2022-11-12T06:33:43.232Z,6.28
2022-11-12T06:34:43.233Z,6.17
2022-11-12T06:35:43.474Z,6.19
2022-11-12T06:36:43.227Z,6.19
2022-11-12T06:37:43.219Z,6.14
2022-11-12T06:38:43.219Z,6.11
2022-11-12T06:39:43.333Z,6.19
2022-11-12T06:40:43.210Z,6.17
2022-11-12T06:41:43.208Z,6.17
2022-11-12T06:42:43.200Z,6.18
2022-11-12T06:43:43.198Z,6.18
2022-11-12T06:44:43.192Z,6.22
2022-11-12T06:45:43.196Z,6.22
2022-11-12T06:46:43.186Z,6.25
2022-11-12T06:47:43.183Z,6.36
2022-11-12T06:48:43.175Z,6.36
2022-11-12T06:49:43.175Z,6.31
2022-11-12T06:50:43.167Z,6.36
2022-11-12T06:51:43.170Z,6.38
2022-11-12T06:52:43.185Z,6.40
2022-11-12T06:53:43.157Z,6.41
2022-11-12T06:54:43.153Z,6.38
2022-11-12T06:55:43.275Z,6.44
2022-11-12T06:56:43.150Z,6.44
2022-11-12T06:57:43.145Z,6.52
2022-11-12T06:58:43.143Z,6.52
2022-11-12T06:59:43.142Z,6.70
2022-11-12T07:00:43.139Z,6.79
2022-11-12T07:01:43.222Z,6.81
2022-11-12T07:02:43.126Z,6.81
2022-11-12T07:03:43.127Z,6.80
2022-11-12T07:04:43.123Z,6.73
2022-11-12T07:05:43.124Z,6.77
2022-11-12T07:06:43.173Z,6.74
2022-11-12T07:07:43.109Z,6.81
2022-11-12T07:08:43.105Z,6.92
2022-11-12T07:09:43.100Z,6.88
2022-11-12T07:10:43.100Z,6.89
2022-11-12T07:11:43.211Z,6.99
2022-11-12T07:12:43.089Z,6.97
2022-11-12T07:13:43.089Z,7.02
2022-11-12T07:14:43.081Z,7.09
2022-11-12T07:15:43.080Z,7.10
2022-11-12T07:16:43.077Z,7.21
2022-11-12T07:17:43.071Z,7.24
2022-11-12T07:18:43.075Z,7.37
2022-11-12T07:19:43.067Z,7.42
2022-11-12T07:20:43.057Z,7.45
2022-11-12T07:21:43.064Z,7.48
2022-11-12T07:22:43.057Z,7.48
2022-11-12T07:23:43.056Z,7.64
2022-11-12T07:24:43.048Z,7.74
2022-11-12T07:25:43.043Z,7.97
2022-11-12T07:26:47.321Z,7.92
2022-11-12T07:27:43.150Z,8.05
2022-11-12T07:28:43.037Z,8.20
2022-11-12T07:29:48.101Z,8.33
2022-11-12T07:30:43.026Z,8.26
2022-11-12T07:31:43.025Z,8.28
2022-11-12T07:32:47.179Z,8.33
2022-11-12T07:33:43.015Z,8.43
2022-11-12T07:34:43.018Z,8.59
2022-11-12T07:35:43.007Z,8.58
2022-11-12T07:36:43.003Z,8.74
2022-11-12T07:37:43.003Z,8.81
2022-11-12T07:38:42.995Z,8.73
2022-11-12T07:39:42.993Z,8.74
2022-11-12T07:40:42.990Z,8.74
2022-11-12T07:41:43.006Z,8.76
2022-11-12T07:42:42.983Z,8.83
2022-11-12T07:43:43.092Z,8.83
2022-11-12T07:44:42.976Z,8.84
2022-11-12T07:45:42.975Z,8.94
2022-11-12T07:46:42.972Z,9.11
2022-11-12T07:47:42.977Z,9.17
2022-11-12T07:48:42.966Z,9.18
2022-11-12T07:49:42.964Z,9.32
2022-11-12T07:50:42.957Z,9.31
2022-11-12T07:51:42.957Z,9.42
2022-11-12T07:52:42.955Z,9.38
2022-11-12T07:53:42.951Z,9.53
2022-11-12T07:54:42.946Z,9.51
2022-11-12T07:55:42.948Z,9.58
2022-11-12T07:56:42.940Z,9.61
2022-11-12T07:57:42.940Z,9.58
2022-11-12T07:58:42.937Z,9.69
2022-11-12T07:59:46.144Z,9.69
2022-11-12T08:00:42.930Z,9.78
2022-11-12T08:01:43.043Z,9.72
2022-11-12T08:02:42.924Z,9.83
2022-11-12T08:03:42.929Z,9.86
2022-11-12T08:04:42.924Z,10.08
2022-11-12T08:05:42.911Z,10.11
2022-11-12T08:06:43.131Z,10.20
2022-11-12T08:07:43.039Z,10.20
2022-11-12T08:08:42.905Z,10.17
2022-11-12T08:09:42.904Z,10.14
2022-11-12T08:10:42.905Z,10.23
2022-11-12T08:11:42.900Z,10.12
2022-11-12T08:12:42.894Z,10.23
2022-11-12T08:13:42.894Z,10.32
2022-11-12T08:14:42.892Z,10.30
2022-11-12T08:15:45.769Z,10.44
2022-11-12T08:16:42.880Z,10.40
2022-11-12T08:17:42.883Z,10.42
2022-11-12T08:18:42.883Z,10.55
2022-11-12T08:19:42.881Z,10.71
2022-11-12T08:20:42.871Z,10.63
2022-11-12T08:21:42.872Z,10.82
2022-11-12T08:22:48.890Z,10.82
2022-11-12T08:23:42.864Z,10.82
2022-11-12T08:24:42.866Z,10.97
2022-11-12T08:25:42.863Z,10.97
2022-11-12T08:26:42.859Z,11.00
2022-11-12T08:27:42.861Z,11.00
2022-11-12T08:28:42.863Z,10.79
2022-11-12T08:29:42.853Z,10.92
2022-11-12T08:30:42.850Z,10.94
2022-11-12T08:31:42.961Z,10.89
2022-11-12T08:32:42.850Z,11.06
2022-11-12T08:33:42.849Z,11.18
2022-11-12T08:34:42.840Z,11.32
2022-11-12T08:35:42.840Z,11.44
2022-11-12T08:36:42.839Z,11.61
2022-11-12T08:37:42.831Z,11.80
2022-11-12T08:38:42.840Z,11.96
2022-11-12T08:39:42.830Z,12.05
2022-11-12T08:40:42.830Z,12.21
2022-11-12T08:41:42.826Z,12.35
2022-11-12T08:42:42.828Z,12.31
2022-11-12T08:43:42.824Z,12.38
2022-11-12T08:44:42.818Z,12.38
2022-11-12T08:45:42.817Z,12.54
2022-11-12T08:46:42.819Z,12.60
2022-11-12T08:47:42.929Z,12.68
2022-11-12T08:48:42.814Z,12.65
2022-11-12T08:49:47.865Z,12.68
2022-11-12T08:50:42.809Z,12.79
2022-11-12T08:51:42.807Z,12.92
2022-11-12T08:52:42.808Z,12.86
2022-11-12T08:53:42.811Z,12.90
2022-11-12T08:54:42.802Z,12.85
2022-11-12T08:55:42.803Z,13.04
2022-11-12T08:56:42.800Z,13.11
2022-11-12T08:57:42.802Z,13.14
2022-11-12T08:58:42.799Z,13.12
2022-11-12T08:59:42.796Z,13.14
2022-11-12T09:00:42.792Z,13.11
2022-11-12T09:01:42.836Z,13.08
2022-11-12T09:02:42.793Z,13.17
2022-11-12T09:03:42.902Z,13.20
2022-11-12T09:04:42.787Z,13.23
2022-11-12T09:05:42.789Z,13.38
2022-11-12T09:06:42.840Z,13.55
2022-11-12T09:07:49.991Z,13.63
2022-11-12T09:08:42.785Z,13.71
2022-11-12T09:09:42.777Z,13.75
2022-11-12T09:10:42.787Z,13.71
2022-11-12T09:11:42.784Z,13.81
2022-11-12T09:12:42.780Z,13.85
2022-11-12T09:13:42.817Z,13.89
2022-11-12T09:14:42.772Z,13.99
2022-11-12T09:15:42.778Z,14.06
2022-11-12T09:16:42.773Z,14.09
2022-11-12T09:17:42.770Z,14.17
2022-11-12T09:18:42.772Z,14.14
2022-11-12T09:19:43.292Z,14.35
2022-11-12T09:20:42.773Z,14.36
2022-11-12T09:21:42.766Z,14.45
2022-11-12T09:22:42.772Z,14.54
2022-11-12T09:23:42.764Z,14.68
2022-11-12T09:24:42.769Z,14.68
2022-11-12T09:25:42.764Z,14.72
2022-11-12T09:26:42.767Z,14.72
2022-11-12T09:27:48.163Z,14.69
2022-11-12T09:28:42.762Z,14.69
2022-11-12T09:29:42.757Z,14.70
2022-11-12T09:30:42.763Z,14.65
2022-11-12T09:31:42.759Z,14.72
2022-11-12T09:32:42.764Z,14.72
2022-11-12T09:33:42.754Z,14.80
2022-11-12T09:34:42.760Z,14.72
2022-11-12T09:35:42.870Z,14.83
2022-11-12T09:36:42.797Z,15.13
2022-11-12T09:37:42.755Z,15.16
2022-11-12T09:38:42.769Z,15.23
2022-11-12T09:39:42.767Z,15.17
2022-11-12T09:40:42.797Z,15.10
2022-11-12T09:41:42.755Z,15.34
2022-11-12T09:42:42.755Z,15.50
2022-11-12T09:43:42.749Z,15.62
2022-11-12T09:44:42.754Z,15.89
2022-11-12T09:45:50.310Z,15.84
2022-11-12T09:46:42.749Z,15.90
2022-11-12T09:47:42.751Z,15.89
2022-11-12T09:48:42.752Z,16.00
2022-11-12T09:49:42.756Z,15.87
2022-11-12T09:50:42.752Z,15.94
2022-11-12T09:51:42.870Z,15.75
2022-11-12T09:52:42.753Z,15.74
2022-11-12T09:53:44.498Z,15.80
2022-11-12T09:54:42.751Z,15.89
2022-11-12T09:55:42.769Z,15.76
2022-11-12T09:56:42.751Z,15.67
2022-11-12T09:57:42.752Z,15.76
2022-11-12T09:58:42.746Z,15.90
2022-11-12T09:59:42.746Z,16.01
2022-11-12T10:00:45.071Z,16.09
2022-11-12T10:01:42.777Z,16.12
2022-11-12T10:02:42.748Z,16.30
2022-11-12T10:03:42.749Z,16.33
2022-11-12T10:04:42.750Z,16.43
2022-11-12T10:05:42.743Z,16.30
2022-11-12T10:06:42.808Z,16.38
2022-11-12T10:07:42.863Z,16.52
2022-11-12T10:08:42.755Z,16.63
2022-11-12T10:09:42.748Z,16.67
2022-11-12T10:10:42.744Z,16.70
2022-11-12T10:11:42.748Z,16.88
2022-11-12T10:12:42.746Z,16.88
2022-11-12T10:13:42.745Z,16.93
2022-11-12T10:14:42.745Z,16.93
2022-11-12T10:15:42.748Z,16.86
2022-11-12T10:16:42.750Z,16.88
2022-11-12T10:17:42.750Z,17.01
2022-11-12T10:18:42.744Z,17.03
2022-11-12T10:19:42.747Z,17.07
2022-11-12T10:20:42.747Z,17.18
2022-11-12T10:21:42.743Z,17.15
2022-11-12T10:22:42.749Z,17.25
2022-11-12T10:23:42.871Z,17.34
2022-11-12T10:24:42.749Z,17.44
2022-11-12T10:25:42.751Z,17.55
2022-11-12T10:26:42.749Z,17.75
2022-11-12T10:27:42.746Z,17.89
2022-11-12T10:28:42.751Z,17.99
2022-11-12T10:29:42.746Z,18.35
2022-11-12T10:30:42.752Z,18.47
2022-11-12T10:31:42.750Z,18.75
2022-11-12T10:32:42.753Z,18.98
2022-11-12T10:33:42.749Z,18.92
2022-11-12T10:34:42.750Z,18.95
2022-11-12T10:35:42.751Z,18.94
2022-11-12T10:36:42.756Z,19.13
2022-11-12T10:37:42.750Z,19.19
2022-11-12T10:38:42.750Z,19.29
2022-11-12T10:39:42.877Z,19.43
2022-11-12T10:40:42.758Z,19.41
2022-11-12T10:41:42.754Z,19.63
2022-11-12T10:42:42.760Z,19.71
2022-11-12T10:43:42.755Z,19.95
2022-11-12T10:44:42.757Z,20.13
2022-11-12T10:45:42.849Z,20.32
2022-11-12T10:46:42.766Z,20.29
2022-11-12T10:47:42.891Z,20.42
2022-11-12T10:48:42.764Z,20.41
2022-11-12T10:49:42.773Z,20.87
2022-11-12T10:50:42.765Z,21.12
2022-11-12T10:51:42.767Z,21.34
2022-11-12T10:52:42.770Z,21.65
2022-11-12T10:53:42.766Z,21.92
2022-11-12T10:54:42.770Z,22.03
2022-11-12T10:55:42.885Z,22.03
2022-11-12T10:56:42.775Z,22.14
2022-11-12T10:57:42.773Z,22.09
2022-11-12T10:58:42.775Z,22.09
2022-11-12T10:59:42.780Z,22.36
2022-11-12T11:00:42.787Z,22.60
2022-11-12T11:01:45.704Z,22.98
2022-11-12T11:02:42.791Z,23.83
2022-11-12T11:03:42.801Z,24.62
2022-11-12T11:04:42.790Z,25.03
2022-11-12T11:05:42.791Z,25.39
2022-11-12T11:06:42.845Z,25.80
2022-11-12T11:07:42.800Z,26.10
2022-11-12T11:08:42.809Z,26.25
2022-11-12T11:09:42.804Z,26.20
2022-11-12T11:10:42.810Z,25.99
2022-11-12T11:11:42.925Z,25.73
2022-11-12T11:12:42.836Z,25.77
2022-11-12T11:13:42.821Z,25.82
2022-11-12T11:14:42.832Z,25.73
2022-11-12T11:15:42.830Z,25.67
2022-11-12T11:16:42.839Z,25.39
2022-11-12T11:17:42.842Z,25.08
2022-11-12T11:18:42.844Z,24.28
2022-11-12T11:19:42.867Z,23.85
2022-11-12T11:20:42.862Z,23.70
2022-11-12T11:21:43.574Z,24.10
2022-11-12T11:22:42.875Z,24.47
2022-11-12T11:23:42.876Z,24.49
2022-11-12T11:24:42.880Z,24.62
2022-11-12T11:25:42.893Z,24.81
2022-11-12T11:26:42.893Z,24.87
2022-11-12T11:27:43.009Z,25.14
2022-11-12T11:28:42.907Z,25.21
2022-11-12T11:29:43.007Z,25.35
2022-11-12T11:30:42.915Z,25.57
2022-11-12T11:31:42.924Z,25.90
2022-11-12T11:32:42.932Z,25.97
2022-11-12T11:33:42.940Z,26.10
2022-11-12T11:34:42.948Z,26.58
2022-11-12T11:35:42.951Z,27.04
2022-11-12T11:36:42.968Z,27.17
2022-11-12T11:37:42.961Z,27.43
2022-11-12T11:38:42.971Z,27.93
2022-11-12T11:40:40.561Z,28.31
2022-11-12T11:41:40.572Z,28.49
2022-11-12T11:42:40.575Z,28.71
2022-11-12T11:43:40.802Z,28.59
2022-11-12T11:44:40.593Z,28.30
2022-11-12T11:45:40.606Z,28.61
2022-11-12T11:46:40.614Z,28.71
2022-11-12T11:48:00.029Z,29.02
2022-11-12T11:48:40.631Z,28.93
2022-11-12T11:49:40.641Z,28.81
2022-11-12T11:50:40.650Z,28.56
2022-11-12T11:51:40.658Z,28.41
2022-11-12T11:52:40.665Z,28.76
2022-11-12T11:53:40.672Z,29.05
2022-11-12T11:54:40.682Z,29.41
2022-11-12T11:55:40.702Z,29.58
2022-11-12T11:56:40.711Z,29.57
2022-11-12T11:57:40.710Z,29.58
2022-11-12T11:58:40.725Z,29.19
2022-11-12T11:59:40.849Z,28.62
2022-11-12T12:00:40.742Z,27.97
2022-11-12T12:01:40.752Z,27.13
2022-11-12T12:02:40.759Z,25.82
2022-11-12T12:03:40.810Z,24.85
2022-11-12T12:04:40.777Z,24.34
2022-11-12T12:05:40.785Z,23.88
2022-11-12T12:06:40.843Z,23.48
2022-11-12T12:07:40.799Z,23.01
2022-11-12T12:08:40.810Z,22.75
2022-11-12T12:09:40.817Z,22.54
2022-11-12T12:11:06.299Z,22.36
2022-11-12T12:11:40.828Z,22.20
2022-11-12T12:12:40.846Z,22.14
2022-11-12T12:13:40.847Z,22.00
2022-11-12T12:14:40.850Z,22.00
2022-11-12T12:15:40.969Z,21.90
2022-11-12T12:16:40.867Z,21.79
2022-11-12T12:17:40.871Z,21.59
2022-11-12T12:18:40.873Z,21.49
2022-11-12T12:19:40.875Z,21.40
2022-11-12T12:20:40.883Z,21.37
2022-11-12T12:21:40.891Z,21.38
2022-11-12T12:22:40.891Z,21.38
2022-11-12T12:23:40.899Z,21.40
2022-11-12T12:24:40.904Z,21.49
2022-11-12T12:25:40.911Z,21.54
2022-11-12T12:26:40.912Z,21.58
2022-11-12T12:27:40.920Z,21.32
2022-11-12T12:28:40.924Z,21.29
2022-11-12T12:29:40.919Z,21.34
2022-11-12T12:30:40.937Z,21.40
2022-11-12T12:31:41.047Z,21.28
2022-11-12T12:32:40.935Z,21.46
2022-11-12T12:33:40.947Z,21.42
2022-11-12T12:34:40.944Z,21.19
2022-11-12T12:35:40.946Z,21.06
2022-11-12T12:36:40.955Z,20.82
2022-11-12T12:37:40.951Z,20.62
2022-11-12T12:38:40.956Z,20.57
2022-11-12T12:39:45.032Z,20.64
2022-11-12T12:40:40.960Z,20.57
2022-11-12T12:41:40.962Z,20.48
2022-11-12T12:42:40.964Z,20.57
2022-11-12T12:43:40.973Z,20.52
2022-11-12T12:44:40.976Z,20.58
2022-11-12T12:45:40.980Z,20.57
2022-11-12T12:46:40.980Z,20.61
2022-11-12T12:47:41.097Z,20.55
2022-11-12T12:48:40.982Z,20.54
2022-11-12T12:49:40.981Z,20.43
2022-11-12T12:50:40.989Z,20.36
2022-11-12T12:51:40.991Z,20.52
2022-11-12T12:52:40.993Z,20.47
2022-11-12T12:53:40.991Z,20.42
2022-11-12T12:54:40.993Z,20.31
2022-11-12T12:55:41.000Z,20.28
2022-11-12T12:56:40.997Z,20.28
2022-11-12T12:57:41.005Z,20.18
2022-11-12T12:58:41.005Z,20.17
2022-11-12T12:59:41.002Z,20.29
2022-11-12T13:00:41.127Z,20.32
2022-11-12T13:01:41.009Z,20.26
2022-11-12T13:02:41.010Z,20.29
2022-11-12T13:03:41.131Z,20.16
2022-11-12T13:04:41.015Z,20.02
2022-11-12T13:05:41.016Z,20.08
2022-11-12T13:06:41.097Z,20.03
2022-11-12T13:07:41.020Z,20.05
2022-11-12T13:08:41.020Z,20.02
2022-11-12T13:09:41.018Z,19.98